KSDF/SDF METAR and TAF weather

Enter ICAO airport designator
Station Type Date Time Source
KSDF METAR 2022/09/26 08:56 UTC NOAA

KSDF 260856Z 27009KT 10SM FEW090 16/10 A2985 RMK AO2 SLP103 T01610100 56006 $


Station Type Date Time Source
KSDF Decoded METAR 2022/09/26 08:56 UTC NOAA

STANDIFORD FIELD, KY, United States (KSDF) 38-11N 085-44W 146M
Sep 26, 2022 - 04:56 AM EDT / 2022.09.26 0856 UTC
Wind: from the W (270 degrees) at 10 MPH (9 KT):0
Visibility: 10 mile(s):0
Sky conditions: mostly clear
Temperature: 61.0 F (16.1 C)
Dew Point: 50.0 F (10.0 C)
Relative Humidity: 67%
Pressure (altimeter): 29.85 in. Hg (1010 hPa)
Pressure tendency: 0.02 inches (0.6 hPa) lower than three hours ago
ob: KSDF 260856Z 27009KT 10SM FEW090 16/10 A2985 RMK AO2 SLP103 T01610100 56006
cycle: 9

Station Type Date Time Source
KSDF TAF 2022/09/26 09:12 UTC NOAA

TAF
AMD KSDF 260909Z 2609/2712 27010KT P6SM SKC
FM261300 29014G23KT P6SM FEW250
FM262300 29010KT P6SM SCT250
FM270200 28005KT P6SM FEW250

Example: see airport list